Time;durP1;ratioP1;P1;durP2;ratioP2;P2;SDS_P1;SDS_P2;PMS_P1;PMS_P2;Temp;Humidity;BMP_temperature;BMP_pressure;BME280_temperature;BME280_humidity;BME280_pressure;Samples;Min_cycle;Max_cycle;Signal;HPM_P1;HPM_P2
2023/12/27 00:01:46;;;;;;;10.93;2.20;;;;;;;3.48;100.00;102475.56;5065734;28;20180;-75
2023/12/27 00:04:13;;;;;;;8.80;1.50;;;;;;;3.27;100.00;102418.75;5065331;28;20609;-75
2023/12/27 00:06:39;;;;;;;7.87;1.70;;;;;;;3.45;100.00;102470.47;5053909;28;20643;-75
2023/12/27 00:09:05;;;;;;;14.80;2.23;;;;;;;3.50;100.00;102467.47;5063812;28;20432;-75
2023/12/27 00:11:32;;;;;;;12.57;2.30;;;;;;;4.69;100.00;102628.50;5065383;28;20211;-76
2023/12/27 00:13:58;;;;;;;15.43;2.50;;;;;;;3.79;100.00;102515.75;5061462;28;20211;-75
2023/12/27 00:16:24;;;;;;;13.63;2.27;;;;;;;3.81;100.00;102514.66;5050360;28;20456;-75
2023/12/27 00:18:49;;;;;;;11.90;2.20;;;;;;;2.85;100.00;102371.41;5054536;28;20765;-75
2023/12/27 00:21:15;;;;;;;12.23;3.10;;;;;;;3.49;100.00;102439.25;5049058;28;20179;-75
2023/12/27 00:23:40;;;;;;;11.90;2.50;;;;;;;2.91;100.00;102327.72;5061973;28;20226;-75
2023/12/27 00:26:06;;;;;;;10.33;1.90;;;;;;;2.74;100.00;102309.53;5065510;28;20286;-75
2023/12/27 00:28:32;;;;;;;10.40;2.40;;;;;;;3.50;100.00;102501.97;5052256;28;20271;-75
2023/12/27 00:30:57;;;;;;;9.50;1.97;;;;;;;3.53;100.00;102468.13;5067769;28;21017;-75
2023/12/27 00:33:22;;;;;;;10.20;2.00;;;;;;;2.98;100.00;102413.78;5062865;28;20210;-75
2023/12/27 00:35:48;;;;;;;9.90;1.50;;;;;;;3.11;100.00;102424.34;5063861;28;20167;-75
2023/12/27 00:38:13;;;;;;;7.57;1.63;;;;;;;3.38;100.00;102443.56;5069374;28;20184;-75
2023/12/27 00:40:39;;;;;;;9.87;1.63;;;;;;;3.95;100.00;102505.69;5067388;28;20179;-75
2023/12/27 00:43:04;;;;;;;8.67;1.53;;;;;;;2.31;100.00;102278.19;5048961;28;20878;-76
2023/12/27 00:45:31;;;;;;;8.80;1.90;;;;;;;3.77;100.00;102568.13;5062752;28;20925;-75
2023/12/27 00:47:56;;;;;;;7.03;2.30;;;;;;;3.70;100.00;102546.47;5049672;28;20663;-75
2023/12/27 00:50:22;;;;;;;13.00;2.20;;;;;;;3.29;100.00;102485.81;5044257;28;20517;-75
2023/12/27 00:52:47;;;;;;;8.33;1.90;;;;;;;4.22;100.00;102568.31;5059608;28;20580;-75
2023/12/27 00:55:13;;;;;;;9.73;2.30;;;;;;;2.64;100.00;102352.59;5052933;28;20261;-75
2023/12/27 00:57:38;;;;;;;11.40;2.10;;;;;;;3.01;100.00;102364.97;5053119;28;20197;-76
2023/12/27 01:00:04;;;;;;;9.80;1.50;;;;;;;2.89;100.00;102359.66;5066663;28;20598;-75
2023/12/27 01:02:30;;;;;;;14.33;2.10;;;;;;;2.78;100.00;102326.91;5048106;28;20167;-75
2023/12/27 01:04:56;;;;;;;8.63;1.67;;;;;;;3.25;100.00;102418.03;5066464;28;20438;-75
2023/12/27 01:07:22;;;;;;;13.70;2.00;;;;;;;2.84;100.00;102343.22;5064931;28;20429;-75
2023/12/27 01:09:48;;;;;;;7.13;1.67;;;;;;;3.90;100.00;102558.28;5048661;28;20644;-75
2023/12/27 01:12:14;;;;;;;9.90;1.40;;;;;;;3.20;100.00;102401.63;5046335;28;20462;-75
2023/12/27 01:14:40;;;;;;;10.10;2.03;;;;;;;2.94;100.00;102369.91;5045465;28;20465;-75
2023/12/27 01:17:07;;;;;;;11.27;1.80;;;;;;;2.93;100.00;102369.06;5047284;28;20678;-75
2023/12/27 01:19:32;;;;;;;12.67;2.20;;;;;;;2.81;100.00;102346.09;5066487;28;20194;-75
2023/12/27 01:21:57;;;;;;;13.53;2.33;;;;;;;3.51;100.00;102469.19;5059213;28;20422;-75
2023/12/27 01:24:23;;;;;;;9.13;1.80;;;;;;;3.56;100.00;102477.66;5060789;28;20236;-75
2023/12/27 01:26:48;;;;;;;12.53;2.10;;;;;;;2.92;100.00;102393.00;5046610;28;20774;-75
2023/12/27 01:29:14;;;;;;;9.63;1.87;;;;;;;3.86;100.00;102562.13;5063277;28;20187;-75
2023/12/27 01:31:39;;;;;;;7.87;1.77;;;;;;;2.75;100.00;102359.78;5064572;28;20259;-75
2023/12/27 01:34:05;;;;;;;8.87;1.83;;;;;;;3.94;100.00;102543.00;5064459;28;20255;-75
2023/12/27 01:36:31;;;;;;;8.27;2.00;;;;;;;4.01;100.00;102595.50;5046179;28;20211;-75
2023/12/27 01:38:56;;;;;;;7.83;1.63;;;;;;;4.98;100.00;102729.16;5063693;28;20184;-75
2023/12/27 01:41:22;;;;;;;12.67;2.37;;;;;;;3.19;100.00;102432.59;5063464;28;20216;-75
2023/12/27 01:43:48;;;;;;;12.90;2.70;;;;;;;4.13;100.00;102651.34;5045987;28;20241;-75
2023/12/27 01:46:13;;;;;;;13.17;2.10;;;;;;;3.55;100.00;102505.97;5060710;28;20187;-75
2023/12/27 01:48:43;;;;;;;8.00;1.50;;;;;;;2.69;100.00;102398.19;5067693;28;20428;-75
2023/12/27 01:51:12;;;;;;;11.77;2.17;;;;;;;4.86;100.00;102769.94;5048004;28;20214;-75
2023/12/27 01:53:38;;;;;;;9.87;1.63;;;;;;;3.03;100.00;102397.53;5045870;28;20516;-75
2023/12/27 01:56:03;;;;;;;13.10;2.00;;;;;;;2.70;100.00;102376.00;5065388;28;21024;-75
2023/12/27 01:58:30;;;;;;;12.83;1.87;;;;;;;3.51;100.00;102540.81;5063638;28;20175;-75
2023/12/27 02:00:56;;;;;;;15.23;2.10;;;;;;;2.43;100.00;102413.25;5058405;28;20441;-74
2023/12/27 02:03:23;;;;;;;11.40;1.70;;;;;;;2.61;100.00;102440.25;5044974;28;20426;-75
2023/12/27 02:05:50;;;;;;;6.07;1.53;;;;;;;3.22;100.00;102529.66;5047676;28;20432;-75
2023/12/27 02:08:17;;;;;;;7.80;1.70;;;;;;;3.14;100.00;102440.03;5049771;28;20417;-75
2023/12/27 02:10:42;;;;;;;9.40;2.13;;;;;;;3.53;100.00;102523.84;5064196;28;20425;-75
2023/12/27 02:13:08;;;;;;;13.43;1.73;;;;;;;2.94;100.00;102446.75;5062287;28;21002;-75
2023/12/27 02:15:35;;;;;;;13.00;2.40;;;;;;;3.36;100.00;102497.69;5050817;28;20458;-76
2023/12/27 02:18:03;;;;;;;9.13;1.70;;;;;;;2.26;100.00;102342.94;5052285;28;20232;-75
2023/12/27 02:20:28;;;;;;;11.80;2.07;;;;;;;3.45;100.00;102493.50;5059449;28;20434;-75
2023/12/27 02:22:55;;;;;;;13.53;1.90;;;;;;;2.65;100.00;102427.63;5057209;28;20425;-75
2023/12/27 02:25:21;;;;;;;11.23;2.40;;;;;;;3.56;100.00;102512.16;5063374;28;20209;-75
2023/12/27 02:27:47;;;;;;;11.47;2.20;;;;;;;3.02;100.00;102423.22;5047264;28;20574;-75
2023/12/27 02:30:21;;;;;;;7.10;1.50;;;;;;;3.17;100.00;102476.94;5050885;28;20954;-75
2023/12/27 02:32:50;;;;;;;14.73;2.40;;;;;;;4.60;100.00;102671.75;5060631;28;20640;-75
2023/12/27 02:35:16;;;;;;;9.83;1.53;;;;;;;2.81;100.00;102334.66;5045638;28;20547;-75
2023/12/27 02:37:42;;;;;;;11.30;2.03;;;;;;;3.25;100.00;102432.16;5046078;28;20441;-75
2023/12/27 02:40:08;;;;;;;8.47;1.90;;;;;;;1.99;100.00;102245.13;5044630;28;20529;-75
2023/12/27 02:42:38;;;;;;;10.77;2.43;;;;;;;2.61;100.00;102373.19;5050757;28;20175;-75
2023/12/27 02:45:05;;;;;;;7.83;2.07;;;;;;;3.32;100.00;102467.84;5043597;28;20818;-75
2023/12/27 02:47:30;;;;;;;8.43;1.80;;;;;;;3.49;100.00;102518.84;5061621;28;20425;-75
2023/12/27 02:49:56;;;;;;;15.93;2.50;;;;;;;2.07;100.00;102268.41;5046123;28;20437;-75
2023/12/27 02:52:21;;;;;;;8.03;1.60;;;;;;;2.49;100.00;102385.50;5046876;28;20211;-75
2023/12/27 02:54:47;;;;;;;7.63;1.80;;;;;;;2.77;100.00;102410.84;5049585;28;20287;-75
2023/12/27 02:57:13;;;;;;;17.50;2.20;;;;;;;2.81;100.00;102396.44;5062753;28;20188;-75
2023/12/27 02:59:38;;;;;;;13.30;2.10;;;;;;;2.80;100.00;102413.28;5051105;28;20244;-75
2023/12/27 03:02:06;;;;;;;6.87;1.50;;;;;;;2.45;100.00;102376.91;5064202;28;20452;-75
2023/12/27 03:04:32;;;;;;;15.73;2.20;;;;;;;2.42;100.00;102374.47;5066052;28;20554;-75
2023/12/27 03:06:57;;;;;;;9.13;2.07;;;;;;;2.41;100.00;102367.47;5064028;28;20445;-76
2023/12/27 03:09:24;;;;;;;8.87;2.03;;;;;;;2.75;100.00;102396.00;5052168;28;20190;-76
2023/12/27 03:11:50;;;;;;;9.50;1.77;;;;;;;2.17;100.00;102321.53;5048847;28;20215;-75
2023/12/27 03:14:15;;;;;;;15.90;2.23;;;;;;;2.06;100.00;102252.66;5061680;28;20812;-75
2023/12/27 03:16:41;;;;;;;9.20;2.17;;;;;;;1.64;100.00;102222.94;5066191;28;20187;-75
2023/12/27 03:19:06;;;;;;;10.30;2.27;;;;;;;3.84;100.00;102570.19;5066652;28;20184;-75
2023/12/27 03:21:34;;;;;;;14.00;1.77;;;;;;;2.50;100.00;102376.59;5047473;28;20186;-75
2023/12/27 03:23:59;;;;;;;9.70;2.13;;;;;;;2.48;100.00;102370.53;5065918;28;20207;-75
2023/12/27 03:26:25;;;;;;;10.30;1.90;;;;;;;2.79;100.00;102411.59;5044861;28;20444;-75
2023/12/27 03:28:53;;;;;;;10.23;2.07;;;;;;;2.80;100.00;102471.59;5052292;28;20560;-75
2023/12/27 03:31:18;;;;;;;9.03;1.70;;;;;;;2.13;100.00;102305.03;5064750;28;20209;-75
2023/12/27 03:33:44;;;;;;;8.73;1.97;;;;;;;1.27;100.00;102159.38;5066886;28;21159;-75
2023/12/27 03:36:09;;;;;;;8.10;1.70;;;;;;;2.39;100.00;102405.63;5046907;28;20263;-75
2023/12/27 03:38:34;;;;;;;7.43;1.40;;;;;;;1.74;100.00;102346.53;5063901;28;20195;-75
2023/12/27 03:41:00;;;;;;;12.60;2.10;;;;;;;3.58;100.00;102563.28;5047218;28;20260;-75
2023/12/27 03:43:25;;;;;;;9.90;2.10;;;;;;;2.11;100.00;102330.78;5064450;28;20182;-75
2023/12/27 03:45:54;;;;;;;11.57;2.03;;;;;;;1.73;100.00;102277.84;5044652;28;20729;-75
2023/12/27 03:48:21;;;;;;;9.83;1.70;;;;;;;2.34;100.00;102310.59;5048947;28;20191;-75
2023/12/27 03:50:47;;;;;;;12.57;2.00;;;;;;;2.12;100.00;102249.56;5086694;22;20429;-75
2023/12/27 03:53:14;;;;;;;9.83;2.60;;;;;;;2.35;100.00;102275.25;5021134;28;20505;-75
2023/12/27 03:55:42;;;;;;;8.20;1.50;;;;;;;3.37;100.00;102462.22;5031434;22;20514;-72
2023/12/27 03:58:08;;;;;;;6.70;1.90;;;;;;;3.10;100.00;102412.91;4995217;28;20472;-73
2023/12/27 04:00:33;;;;;;;11.00;2.63;;;;;;;3.57;100.00;102490.78;5001175;28;20444;-73
2023/12/27 04:02:59;;;;;;;7.63;1.57;;;;;;;3.81;100.00;102527.94;4999056;28;20185;-72
2023/12/27 04:05:24;;;;;;;8.90;1.63;;;;;;;3.57;100.00;102514.69;5010435;28;20249;-72
2023/12/27 04:07:49;;;;;;;9.63;1.93;;;;;;;3.69;100.00;102530.66;5000458;28;20213;-72
2023/12/27 04:10:15;;;;;;;8.60;2.00;;;;;;;3.64;100.00;102525.69;4997781;28;20189;-72
2023/12/27 04:12:40;;;;;;;8.37;2.23;;;;;;;3.18;100.00;102420.28;4998967;28;20316;-72
2023/12/27 04:15:07;;;;;;;7.63;1.50;;;;;;;3.76;100.00;102490.31;4995475;28;20194;-72
2023/12/27 04:17:33;;;;;;;8.17;1.83;;;;;;;3.67;100.00;102506.03;5001431;28;20248;-72
2023/12/27 04:19:58;;;;;;;9.67;1.70;;;;;;;3.06;100.00;102445.03;4996062;28;20439;-72
2023/12/27 04:22:24;;;;;;;10.63;1.90;;;;;;;3.61;100.00;102508.16;5000344;28;20196;-72
2023/12/27 04:24:49;;;;;;;7.00;1.80;;;;;;;2.09;100.00;102278.91;5004894;28;20186;-72
2023/12/27 04:27:15;;;;;;;12.40;2.20;;;;;;;3.32;100.00;102412.16;5004301;28;20535;-72
2023/12/27 04:29:40;;;;;;;10.63;2.07;;;;;;;3.57;100.00;102476.69;5007055;28;20209;-72
2023/12/27 04:32:06;;;;;;;12.60;2.40;;;;;;;3.51;100.00;102495.72;5007680;28;20227;-72
2023/12/27 04:34:32;;;;;;;9.87;2.10;;;;;;;3.69;100.00;102504.97;4996116;28;20196;-73
2023/12/27 04:36:57;;;;;;;7.53;2.23;;;;;;;3.65;100.00;102486.75;4994729;28;20460;-72
2023/12/27 04:39:22;;;;;;;11.03;2.10;;;;;;;3.83;100.00;102480.91;4999452;28;20236;-72
2023/12/27 04:41:48;;;;;;;10.70;1.90;;;;;;;2.99;100.00;102396.09;4997355;28;20644;-73
2023/12/27 04:44:13;;;;;;;8.40;2.10;;;;;;;3.05;100.00;102419.50;4998844;28;20207;-72
2023/12/27 04:46:39;;;;;;;10.13;2.00;;;;;;;2.94;100.00;102372.53;4997842;28;20243;-72
2023/12/27 04:49:09;;;;;;;17.80;2.33;;;;;;;3.76;100.00;102490.31;4998392;28;20193;-72
2023/12/27 04:51:35;;;;;;;7.87;2.20;;;;;;;3.30;100.00;102416.75;4991805;28;20220;-72
2023/12/27 04:54:02;;;;;;;10.53;2.03;;;;;;;3.71;100.00;102439.38;4996619;28;20571;-72
2023/12/27 04:56:27;;;;;;;10.30;2.10;;;;;;;3.58;100.00;102452.69;4998910;28;20300;-72
2023/12/27 04:58:53;;;;;;;14.00;2.50;;;;;;;3.65;100.00;102442.47;5013264;28;20892;-72
2023/12/27 05:01:18;;;;;;;7.43;2.33;;;;;;;3.75;100.00;102470.00;4991233;28;20734;-72
2023/12/27 05:03:44;;;;;;;9.43;2.13;;;;;;;3.29;100.00;102391.16;4991302;28;20713;-72
2023/12/27 05:06:11;;;;;;;10.20;2.43;;;;;;;3.64;100.00;102464.66;4994863;28;20189;-72
2023/12/27 05:08:42;;;;;;;9.80;2.40;;;;;;;3.35;100.00;102388.06;4999235;28;20195;-73
2023/12/27 05:11:13;;;;;;;11.60;2.53;;;;;;;3.52;100.00;102437.22;5000282;28;20494;-72
2023/12/27 05:13:39;;;;;;;8.33;2.00;;;;;;;3.75;100.00;102459.38;4997245;28;20440;-72
2023/12/27 05:16:11;;;;;;;9.97;2.50;;;;;;;3.99;100.00;102454.06;4998079;28;20922;-72
2023/12/27 05:18:38;;;;;;;10.00;2.30;;;;;;;3.66;100.00;102443.31;4995573;28;20439;-72
2023/12/27 05:21:04;;;;;;;13.37;2.60;;;;;;;3.61;100.00;102483.44;5012510;28;20519;-72
2023/12/27 05:23:29;;;;;;;8.50;2.10;;;;;;;3.17;100.00;102408.00;4998259;28;20516;-72
2023/12/27 05:25:55;;;;;;;12.60;1.93;;;;;;;3.19;100.00;102422.00;5013736;28;20913;-73
2023/12/27 05:28:20;;;;;;;11.17;2.70;;;;;;;3.11;100.00;102408.44;4997177;28;20214;-72
2023/12/27 05:30:45;;;;;;;9.47;2.60;;;;;;;3.51;100.00;102455.91;4996697;28;20236;-72
2023/12/27 05:33:11;;;;;;;16.80;3.23;;;;;;;3.81;100.00;102453.63;4995111;28;20216;-73
2023/12/27 05:35:36;;;;;;;6.90;2.00;;;;;;;3.10;100.00;102372.28;4996886;28;20577;-72
2023/12/27 05:38:02;;;;;;;8.60;2.03;;;;;;;3.26;100.00;102379.94;4993288;28;20210;-73
2023/12/27 05:40:27;;;;;;;9.23;2.03;;;;;;;3.75;100.00;102434.66;5012528;28;20189;-72
2023/12/27 05:42:53;;;;;;;10.37;2.23;;;;;;;3.74;100.00;102463.00;4995427;28;20284;-72
2023/12/27 05:45:19;;;;;;;12.10;1.93;;;;;;;3.55;100.00;102454.72;4999971;28;20196;-72
2023/12/27 05:47:44;;;;;;;16.10;2.73;;;;;;;3.68;100.00;102449.38;4996190;28;20695;-72
2023/12/27 05:50:09;;;;;;;8.37;1.87;;;;;;;3.27;100.00;102413.44;4998881;28;20315;-72
2023/12/27 05:52:35;;;;;;;11.23;2.50;;;;;;;2.65;100.00;102314.56;4995476;28;20205;-72
2023/12/27 05:55:00;;;;;;;10.53;2.83;;;;;;;2.91;100.00;102343.63;4994831;28;20216;-72
2023/12/27 05:57:26;;;;;;;10.40;2.30;;;;;;;2.97;100.00;102340.50;5013823;28;20403;-72
2023/12/27 05:59:51;;;;;;;13.27;2.90;;;;;;;3.47;100.00;102438.50;4997918;28;20266;-72
2023/12/27 06:02:17;;;;;;;10.30;2.60;;;;;;;3.54;100.00;102430.00;4996304;28;20605;-72
2023/12/27 06:04:42;;;;;;;13.40;2.70;;;;;;;3.13;100.00;102377.38;4995835;28;20186;-73
2023/12/27 06:07:08;;;;;;;13.00;2.40;;;;;;;3.59;100.00;102408.44;4992181;28;20649;-72
2023/12/27 06:09:33;;;;;;;19.03;2.80;;;;;;;3.73;100.00;102424.19;4993883;28;20610;-73
2023/12/27 06:11:59;;;;;;;10.40;3.30;;;;;;;3.43;100.00;102392.81;4996094;28;20248;-72
2023/12/27 06:14:24;;;;;;;9.27;2.20;;;;;;;2.58;100.00;102270.09;4995481;28;20190;-73
2023/12/27 06:16:50;;;;;;;14.30;3.40;;;;;;;3.16;100.00;102388.59;4997067;28;20225;-72
2023/12/27 06:19:16;;;;;;;8.33;2.20;;;;;;;3.80;100.00;102411.28;5012942;28;20185;-72
2023/12/27 06:21:41;;;;;;;13.17;2.63;;;;;;;3.49;100.00;102434.78;4996729;28;20221;-72
2023/12/27 06:24:07;;;;;;;11.30;2.80;;;;;;;2.51;100.00;102263.53;4995205;28;20848;-72
2023/12/27 06:26:33;;;;;;;8.50;2.50;;;;;;;3.13;100.00;102341.09;4996639;28;20209;-72
2023/12/27 06:28:58;;;;;;;9.90;2.63;;;;;;;3.58;100.00;102428.78;5000146;28;20434;-72
2023/12/27 06:31:23;;;;;;;10.80;2.80;;;;;;;3.15;100.00;102396.63;5000561;28;20230;-72
2023/12/27 06:33:49;;;;;;;8.13;2.90;;;;;;;3.43;100.00;102435.25;4994553;28;20210;-72
2023/12/27 06:36:14;;;;;;;9.13;2.63;;;;;;;2.48;100.00;102342.25;5002181;28;20230;-72
2023/12/27 06:38:40;;;;;;;8.60;2.83;;;;;;;2.03;100.00;102219.31;5002553;28;20184;-73
2023/12/27 06:41:07;;;;;;;12.67;3.53;;;;;;;3.20;100.00;102375.94;5002877;28;20196;-72
2023/12/27 06:43:33;;;;;;;9.80;2.67;;;;;;;3.45;100.00;102432.50;5002922;28;20185;-72
2023/12/27 06:45:58;;;;;;;12.43;3.50;;;;;;;3.48;100.00;102432.28;5000499;28;20417;-73
2023/12/27 06:48:24;;;;;;;9.40;2.83;;;;;;;3.21;100.00;102361.75;5000473;28;20427;-72
2023/12/27 06:50:49;;;;;;;11.77;2.70;;;;;;;3.62;100.00;102413.53;4999551;28;20197;-72
2023/12/27 06:53:14;;;;;;;11.00;3.10;;;;;;;3.27;100.00;102371.91;5002066;28;20205;-72
2023/12/27 06:55:40;;;;;;;10.33;2.70;;;;;;;2.79;100.00;102366.56;5000753;28;20211;-72
2023/12/27 06:58:05;;;;;;;10.20;2.97;;;;;;;3.48;100.00;102438.41;5018258;28;20288;-72
2023/12/27 07:00:31;;;;;;;7.70;3.13;;;;;;;3.46;100.00;102445.63;5000921;28;20276;-73
2023/12/27 07:02:56;;;;;;;12.30;3.37;;;;;;;2.70;100.00;102343.38;4998407;28;20867;-73
2023/12/27 07:05:22;;;;;;;14.73;3.20;;;;;;;3.22;100.00;102415.63;5015154;28;20181;-74
2023/12/27 07:07:47;;;;;;;14.30;3.33;;;;;;;3.44;100.00;102436.09;4997524;28;20209;-72
2023/12/27 07:10:13;;;;;;;8.30;2.83;;;;;;;3.19;100.00;102416.69;5017447;28;20796;-73
2023/12/27 07:12:38;;;;;;;16.30;3.73;;;;;;;3.45;100.00;102428.03;5014514;28;20205;-72
2023/12/27 07:15:07;;;;;;;8.50;3.30;;;;;;;3.45;100.00;102408.63;5000245;28;20225;-72
2023/12/27 07:17:33;;;;;;;12.03;3.47;;;;;;;3.21;100.00;102433.34;5011178;28;20213;-72
2023/12/27 07:19:59;;;;;;;9.10;3.30;;;;;;;2.30;100.00;102290.59;5017699;28;20478;-72
2023/12/27 07:22:25;;;;;;;7.53;2.80;;;;;;;3.14;100.00;102417.00;5000614;28;20611;-73
2023/12/27 07:24:50;;;;;;;11.30;2.80;;;;;;;3.32;100.00;102396.25;4997479;28;20507;-72
2023/12/27 07:27:16;;;;;;;9.60;3.57;;;;;;;3.36;100.00;102424.25;4999001;28;20555;-74
2023/12/27 07:29:41;;;;;;;10.60;3.30;;;;;;;3.39;100.00;102410.75;4997787;28;20192;-73
2023/12/27 07:32:07;;;;;;;9.80;3.13;;;;;;;3.37;100.00;102417.13;5000869;28;20217;-73
2023/12/27 07:34:32;;;;;;;10.43;3.20;;;;;;;3.39;100.00;102413.41;5014324;28;20200;-73
2023/12/27 07:36:59;;;;;;;14.00;3.77;;;;;;;2.85;100.00;102341.41;5000489;28;20680;-73
2023/12/27 07:39:24;;;;;;;7.03;2.30;;;;;;;3.22;100.00;102394.41;5000234;28;20455;-73
2023/12/27 07:41:50;;;;;;;19.00;2.60;;;;;;;3.55;100.00;102385.75;5000111;28;20437;-73
2023/12/27 07:44:16;;;;;;;10.77;3.60;;;;;;;3.46;100.00;102402.34;5016134;28;20189;-73
2023/12/27 07:46:42;;;;;;;9.47;2.80;;;;;;;3.36;100.00;102381.81;4998617;28;20268;-72
2023/12/27 07:49:08;;;;;;;9.17;2.37;;;;;;;3.45;100.00;102369.66;5000938;28;20457;-73
2023/12/27 07:51:33;;;;;;;9.03;2.70;;;;;;;3.68;100.00;102399.78;4998819;28;20507;-73
2023/12/27 07:53:59;;;;;;;8.63;2.77;;;;;;;3.47;100.00;102372.19;4997985;28;20197;-73
2023/12/27 07:56:24;;;;;;;9.30;2.87;;;;;;;3.46;100.00;102376.66;4998802;28;20280;-73
2023/12/27 07:58:50;;;;;;;7.50;3.00;;;;;;;3.55;100.00;102386.56;5000443;28;20231;-73
2023/12/27 08:01:15;;;;;;;11.57;3.17;;;;;;;3.31;100.00;102346.81;4997601;28;20198;-73
2023/12/27 08:03:41;;;;;;;13.07;3.07;;;;;;;3.60;100.00;102386.25;5011497;28;20197;-73
2023/12/27 08:06:06;;;;;;;8.97;3.10;;;;;;;2.70;100.00;102229.44;5012222;28;20232;-73
2023/12/27 08:08:35;;;;;;;8.60;3.00;;;;;;;3.79;100.00;102389.22;4995420;28;20197;-73
2023/12/27 08:11:03;;;;;;;14.13;3.73;;;;;;;3.78;100.00;102384.84;4997856;28;20189;-73
2023/12/27 08:13:32;;;;;;;12.50;3.60;;;;;;;3.68;100.00;102330.78;4992366;28;20530;-73
2023/12/27 08:15:58;;;;;;;13.60;4.03;;;;;;;3.71;100.00;102338.50;4996085;28;20447;-73
2023/12/27 08:18:23;;;;;;;10.77;2.90;;;;;;;3.88;100.00;102381.47;4991020;28;20530;-72
2023/12/27 08:20:49;;;;;;;12.43;2.87;;;;;;;3.35;100.00;102265.22;4990954;28;20185;-73
2023/12/27 08:23:16;;;;;;;14.27;2.80;;;;;;;3.02;100.00;102221.75;4993240;28;20197;-72
2023/12/27 08:25:43;;;;;;;11.00;2.50;;;;;;;4.15;100.00;102390.00;4994221;28;20216;-73
2023/12/27 08:28:08;;;;;;;9.63;3.10;;;;;;;3.58;100.00;102335.09;5002221;28;20510;-72
2023/12/27 08:30:34;;;;;;;11.80;3.30;;;;;;;4.08;100.00;102405.56;4997042;28;20958;-72
2023/12/27 08:33:00;;;;;;;11.13;3.20;;;;;;;3.16;100.00;102273.72;5000357;28;20212;-73
2023/12/27 08:35:26;;;;;;;7.57;2.53;;;;;;;3.65;100.00;102344.28;4998471;28;20440;-72
2023/12/27 08:37:51;;;;;;;11.73;3.27;;;;;;;3.80;100.00;102347.59;5008289;28;20523;-73
2023/12/27 08:40:18;;;;;;;12.60;2.97;;;;;;;3.87;100.00;102371.84;4993240;28;20656;-73
2023/12/27 08:42:44;;;;;;;13.17;4.10;;;;;;;4.00;100.00;102393.84;4995359;28;20280;-72
2023/12/27 08:45:11;;;;;;;11.63;2.40;;;;;;;3.87;100.00;102393.91;5000250;28;20510;-72
2023/12/27 08:47:36;;;;;;;10.57;2.70;;;;;;;3.59;100.00;102369.47;4996397;28;20287;-72
2023/12/27 08:50:02;;;;;;;6.37;2.00;;;;;;;3.24;100.00;102275.78;4994165;28;20879;-72
2023/12/27 08:52:28;;;;;;;11.10;2.50;;;;;;;3.70;100.00;102362.50;5009915;28;20270;-72
2023/12/27 08:54:53;;;;;;;16.30;2.33;;;;;;;2.56;100.00;102126.31;4981148;28;20211;-72
2023/12/27 08:57:19;;;;;;;10.37;2.30;;;;;;;3.85;100.00;102295.84;4989930;28;20201;-73
2023/12/27 08:59:45;;;;;;;10.73;2.80;;;;;;;4.35;100.00;102383.13;4994212;28;20189;-73
2023/12/27 09:02:10;;;;;;;7.23;1.73;;;;;;;3.80;100.00;102275.91;5010267;28;20566;-73
2023/12/27 09:04:35;;;;;;;9.23;2.37;;;;;;;3.66;100.00;102261.06;4990337;28;20440;-73
2023/12/27 09:07:01;;;;;;;10.57;2.50;;;;;;;4.34;100.00;102346.03;4991077;28;21195;-72
2023/12/27 09:09:27;;;;;;;8.87;2.23;;;;;;;4.44;100.00;102373.59;4996753;28;20200;-72
2023/12/27 09:11:52;;;;;;;8.13;2.40;;;;;;;4.41;100.00;102361.38;4994983;28;20198;-72
2023/12/27 09:14:18;;;;;;;13.80;3.70;;;;;;;4.45;100.00;102388.56;4991149;28;20432;-72
2023/12/27 09:16:44;;;;;;;7.23;2.43;;;;;;;4.43;100.00;102378.06;4996477;28;20243;-72
2023/12/27 09:19:11;;;;;;;9.13;2.43;;;;;;;4.43;100.00;102387.84;4994672;28;20177;-72
2023/12/27 09:21:44;;;;;;;5.77;1.90;;;;;;;4.12;100.00;102336.28;4991642;28;20439;-73
2023/12/27 09:24:10;;;;;;;7.20;2.57;;;;;;;4.34;100.00;102383.25;4993973;28;20966;-72
2023/12/27 09:26:35;;;;;;;10.70;2.80;;;;;;;4.35;100.00;102369.00;4997389;28;20475;-73
2023/12/27 09:29:02;;;;;;;9.53;2.80;;;;;;;4.07;100.00;102341.94;5008402;28;20178;-72
2023/12/27 09:31:30;;;;;;;15.40;2.20;;;;;;;4.50;100.00;102384.56;4982104;28;20201;-72
2023/12/27 09:34:02;;;;;;;10.80;2.47;;;;;;;4.28;100.00;102412.00;4996744;28;21446;-73
2023/12/27 09:36:27;;;;;;;9.67;2.63;;;;;;;4.13;100.00;102370.66;4995379;28;20491;-73
2023/12/27 09:38:53;;;;;;;18.33;2.80;;;;;;;4.19;100.00;102364.03;4991610;28;20790;-73
2023/12/27 09:41:19;;;;;;;12.83;2.23;;;;;;;3.59;100.00;102259.84;4997681;28;20182;-73
2023/12/27 09:43:46;;;;;;;10.40;2.60;;;;;;;4.63;100.00;102400.41;4990962;28;20196;-73
2023/12/27 09:46:14;;;;;;;9.40;2.60;;;;;;;3.98;100.00;102308.97;4982528;28;20211;-73
2023/12/27 09:48:41;;;;;;;9.20;2.70;;;;;;;4.63;100.00;102388.91;4984385;28;20988;-73
2023/12/27 09:51:07;;;;;;;10.57;2.50;;;;;;;4.02;100.00;102301.63;4996062;28;24280;-73
2023/12/27 09:53:33;;;;;;;7.37;2.33;;;;;;;3.73;100.00;102234.88;4988394;28;20479;-73
2023/12/27 09:55:59;;;;;;;9.93;2.50;;;;;;;4.80;100.00;102380.44;4989470;28;21066;-72
2023/12/27 09:58:28;;;;;;;8.97;2.20;;;;;;;4.44;100.00;102339.06;4983245;28;20511;-72
2023/12/27 10:00:56;;;;;;;12.23;2.50;;;;;;;4.85;100.00;102382.72;5003239;28;20437;-73
2023/12/27 10:03:35;;;;;;;7.73;2.30;;;;;;;4.77;100.00;102388.66;4989821;28;20440;-73
2023/12/27 10:06:16;;;;;;;10.73;2.80;;;;;;;4.78;100.00;102378.88;4981859;28;20499;-72
2023/12/27 10:08:41;;;;;;;12.80;2.10;;;;;;;4.81;100.00;102374.16;4985904;28;20455;-73
2023/12/27 10:11:09;;;;;;;10.10;2.43;;;;;;;4.94;100.00;102360.72;4986466;28;20494;-73
2023/12/27 10:13:42;;;;;;;11.20;2.40;;;;;;;4.48;100.00;102304.16;4989354;28;20235;-73
2023/12/27 10:16:08;;;;;;;9.80;2.33;;;;;;;4.87;100.00;102347.06;4996845;28;20455;-73
2023/12/27 10:18:33;;;;;;;13.40;1.77;;;;;;;4.39;100.00;102229.63;4992171;28;21937;-72
2023/12/27 10:21:00;;;;;;;7.20;1.97;;;;;;;4.87;100.00;102336.44;4996564;28;20299;-73
2023/12/27 10:23:26;;;;;;;7.90;2.00;;;;;;;4.78;100.00;102283.19;4989891;28;21067;-73
2023/12/27 10:25:52;;;;;;;7.83;1.90;;;;;;;4.82;100.00;102308.53;4994648;28;20425;-73
2023/12/27 10:28:23;;;;;;;9.00;2.17;;;;;;;5.16;100.00;102339.38;4992184;28;20197;-72
2023/12/27 10:30:50;;;;;;;9.73;2.17;;;;;;;5.12;100.00;102343.28;4994599;28;20429;-73
2023/12/27 10:33:17;;;;;;;8.40;2.47;;;;;;;5.10;100.00;102344.38;4993399;28;20464;-73
2023/12/27 10:35:42;;;;;;;11.63;2.50;;;;;;;4.86;100.00;102308.19;4992874;28;20441;-72
2023/12/27 10:38:08;;;;;;;11.97;2.80;;;;;;;4.69;100.00;102253.72;4994764;28;20467;-72
2023/12/27 10:40:34;;;;;;;8.97;2.20;;;;;;;4.83;100.00;102262.38;4985368;28;20189;-73
2023/12/27 10:42:59;;;;;;;9.70;2.43;;;;;;;4.82;100.00;102250.88;4994781;28;20173;-73
2023/12/27 10:45:25;;;;;;;8.80;2.70;;;;;;;4.42;100.00;102190.38;5007218;28;20451;-74
2023/12/27 10:48:04;;;;;;;8.40;2.10;;;;;;;4.72;100.00;102226.91;4992635;28;20308;-73
2023/12/27 10:50:32;;;;;;;7.17;2.70;;;;;;;4.42;100.00;102126.63;4997199;28;25242;-73
2023/12/27 10:53:08;;;;;;;11.77;2.40;;;;;;;4.47;100.00;102123.59;4997279;28;20479;-73
2023/12/27 10:55:35;;;;;;;9.07;1.90;;;;;;;5.09;100.00;102215.84;4998243;28;20543;-73
2023/12/27 10:58:03;;;;;;;8.67;2.23;;;;;;;4.75;100.00;102146.91;4990751;28;20947;-73
2023/12/27 11:00:29;;;;;;;9.47;2.40;;;;;;;4.86;100.00;102129.19;4993636;28;20491;-73
2023/12/27 11:02:57;;;;;;;9.63;2.47;;;;;;;5.15;100.00;102130.22;4993245;28;20461;-73
2023/12/27 11:05:24;;;;;;;11.70;2.30;;;;;;;5.30;100.00;102156.47;4990949;28;20428;-73
2023/12/27 11:07:52;;;;;;;9.30;2.57;;;;;;;5.10;100.00;102100.50;4991613;28;20995;-73
2023/12/27 11:10:19;;;;;;;7.73;1.90;;;;;;;5.20;100.00;102098.72;4980522;28;20437;-73
2023/12/27 11:12:46;;;;;;;10.70;2.07;;;;;;;5.46;100.00;102113.41;4991929;28;20555;-73
2023/12/27 11:15:18;;;;;;;12.77;2.40;;;;;;;5.38;100.00;102098.97;4998690;28;20958;-74
2023/12/27 11:17:45;;;;;;;9.53;2.20;;;;;;;5.36;100.00;102087.59;4989863;28;20464;-73